createdAt,value
2019-03-27T00:01:11.400Z,37.5
2019-03-27T00:06:09.194Z,37.5
2019-03-27T00:11:07.168Z,37.5
2019-03-27T00:16:05.272Z,37.4
2019-03-27T00:21:03.179Z,37.6
2019-03-27T00:26:01.469Z,37.5
2019-03-27T00:30:59.497Z,37.6
2019-03-27T00:35:57.930Z,37.6
2019-03-27T00:40:55.941Z,37.6
2019-03-27T00:45:53.898Z,37.9
2019-03-27T00:50:52.056Z,37.9
2019-03-27T00:55:50.137Z,37.7
2019-03-27T01:00:48.281Z,37.9
2019-03-27T01:05:46.260Z,37.8
2019-03-27T01:10:44.261Z,37.8
2019-03-27T01:15:42.495Z,37.9
2019-03-27T01:20:40.496Z,37.9
2019-03-27T01:25:38.487Z,38.1
2019-03-27T01:30:36.535Z,38
2019-03-27T01:35:34.593Z,38
2019-03-27T01:40:33.242Z,38
2019-03-27T01:45:31.251Z,38.2
2019-03-27T01:50:29.491Z,38.1
2019-03-27T01:55:27.263Z,38.2
2019-03-27T02:00:25.308Z,38.4
2019-03-27T02:05:23.285Z,38.3
2019-03-27T02:10:21.395Z,38.3
2019-03-27T02:15:19.476Z,38.2
2019-03-27T02:20:17.551Z,38.3
2019-03-27T02:25:14.589Z,38.5
2019-03-27T02:30:12.674Z,38.5
2019-03-27T02:35:10.820Z,38.7
2019-03-27T02:40:08.697Z,38.9
2019-03-27T02:45:06.933Z,39.1
2019-03-27T02:50:04.954Z,39.1
2019-03-27T02:55:03.183Z,39.2
2019-03-27T03:00:01.161Z,39.3
2019-03-27T03:04:59.002Z,39.5
2019-03-27T03:09:57.171Z,39.4
2019-03-27T03:14:55.222Z,39.4
2019-03-27T03:19:53.679Z,39.7
2019-03-27T03:24:51.520Z,39.8
2019-03-27T03:29:49.321Z,39.9
2019-03-27T03:34:47.444Z,40
2019-03-27T03:39:45.604Z,39.9
2019-03-27T03:44:44.175Z,40
2019-03-27T03:49:42.492Z,40
2019-03-27T03:54:40.620Z,40.3
2019-03-27T03:59:39.027Z,40.6
2019-03-27T04:04:37.039Z,40.6
2019-03-27T04:09:35.080Z,40.7
2019-03-27T04:14:33.376Z,41.1
2019-03-27T04:19:31.637Z,41.1
2019-03-27T04:24:29.786Z,41.4
2019-03-27T04:29:27.948Z,41.5
2019-03-27T04:34:26.245Z,41.7
2019-03-27T04:39:24.163Z,41.9
2019-03-27T04:44:22.230Z,41.9
2019-03-27T04:49:20.476Z,41.9
2019-03-27T04:54:18.306Z,41.7
2019-03-27T04:59:16.501Z,42
2019-03-27T05:04:14.602Z,41.9
2019-03-27T05:09:12.733Z,42.3
2019-03-27T05:14:10.772Z,42.2
2019-03-27T05:19:09.332Z,42.8
2019-03-27T05:24:07.360Z,42.6
2019-03-27T05:29:05.360Z,42
2019-03-27T05:34:03.662Z,42.3
2019-03-27T05:39:01.821Z,42.5
2019-03-27T05:43:59.710Z,42.5
2019-03-27T05:48:58.060Z,42.5
2019-03-27T05:53:56.472Z,42.8
2019-03-27T05:58:54.897Z,42.5
2019-03-27T06:03:53.497Z,42.5
2019-03-27T06:08:52.180Z,42.4
2019-03-27T06:13:51.368Z,42.3
2019-03-27T06:18:49.677Z,42.3
2019-03-27T06:23:48.343Z,42.4
2019-03-27T06:28:46.526Z,41.9
2019-03-27T06:33:44.660Z,42
2019-03-27T06:38:43.027Z,41.9
2019-03-27T06:43:41.579Z,41.4
2019-03-27T06:48:39.628Z,41
2019-03-27T06:53:37.664Z,40.8
2019-03-27T06:58:35.887Z,40.3
2019-03-27T07:03:34.602Z,40.6
2019-03-27T07:08:33.148Z,40.4
2019-03-27T07:13:31.274Z,39.1
2019-03-27T07:18:39.403Z,36.9
2019-03-27T07:23:27.888Z,35.6
2019-03-27T07:28:26.060Z,34.8
2019-03-27T07:33:24.066Z,34.9
2019-03-27T07:38:22.501Z,34.1
2019-03-27T07:43:21.222Z,33.6
2019-03-27T07:48:19.321Z,33.7
2019-03-27T07:53:18.036Z,33.2
2019-03-27T07:58:16.777Z,33.2
2019-03-27T08:03:15.400Z,32.1
2019-03-27T08:08:13.643Z,32.4
2019-03-27T08:13:12.233Z,35
2019-03-27T08:18:10.833Z,31.9
2019-03-27T08:23:09.341Z,31.3
2019-03-27T08:28:06.990Z,30.9
2019-03-27T08:33:05.677Z,31.2
2019-03-27T08:38:03.929Z,31.5
2019-03-27T08:43:02.506Z,31.3
2019-03-27T08:48:00.593Z,31.4
2019-03-27T08:52:59.369Z,30.9
2019-03-27T08:57:57.427Z,31.2
2019-03-27T09:02:55.900Z,31
2019-03-27T09:07:54.258Z,30.3
2019-03-27T09:12:52.956Z,30
2019-03-27T09:17:51.291Z,29.5
2019-03-27T09:22:49.981Z,28.8
2019-03-27T09:27:51.008Z,28.6
2019-03-27T09:32:49.563Z,28.5
2019-03-27T09:37:48.218Z,27.9
2019-03-27T09:42:46.898Z,27.6
2019-03-27T09:47:44.958Z,27
2019-03-27T09:52:43.867Z,26.6
2019-03-27T09:57:41.774Z,27.2
2019-03-27T10:02:40.292Z,26.1
2019-03-27T10:07:38.763Z,25.9
2019-03-27T10:12:37.719Z,25.7
2019-03-27T10:17:36.883Z,25
2019-03-27T10:22:35.702Z,24.6
2019-03-27T10:27:33.796Z,25
2019-03-27T10:32:32.814Z,25.7
2019-03-27T10:37:31.588Z,26.1
2019-03-27T10:42:30.195Z,25.5
2019-03-27T10:47:28.831Z,25.6
2019-03-27T10:52:27.362Z,26.8
2019-03-27T10:57:26.520Z,26.1
2019-03-27T11:02:24.873Z,25.8
2019-03-27T11:07:23.542Z,25.4
2019-03-27T11:12:22.080Z,25.8
2019-03-27T11:17:20.814Z,25.9
2019-03-27T11:22:18.985Z,26.2
2019-03-27T11:27:17.451Z,25.7
2019-03-27T11:32:15.962Z,25.6
2019-03-27T11:37:14.240Z,25.1
2019-03-27T11:42:13.223Z,25.3
2019-03-27T11:47:12.041Z,24.7
2019-03-27T11:52:10.840Z,24.2
2019-03-27T11:57:09.372Z,24
2019-03-27T12:02:07.919Z,23.9
2019-03-27T12:07:05.918Z,22.5
2019-03-27T12:12:04.859Z,22.8
2019-03-27T12:17:03.336Z,22.5
2019-03-27T12:22:02.480Z,22.8
2019-03-27T12:27:00.983Z,22.8
2019-03-27T12:31:59.657Z,23.1
2019-03-27T12:36:57.786Z,23
2019-03-27T12:41:56.394Z,23.2
2019-03-27T12:46:55.637Z,22.8
2019-03-27T12:51:54.588Z,22.7
2019-03-27T12:56:53.138Z,22.6
2019-03-27T13:01:52.273Z,22.7
2019-03-27T13:06:50.726Z,22.7
2019-03-27T13:11:49.346Z,22.2
2019-03-27T13:16:47.783Z,22.1
2019-03-27T13:21:46.231Z,22.1
2019-03-27T13:26:44.794Z,22.3
2019-03-27T13:31:43.523Z,21.5
2019-03-27T13:36:42.104Z,21.9
2019-03-27T13:41:41.074Z,22
2019-03-27T13:46:39.769Z,22.4
2019-03-27T13:51:40.681Z,21.8
2019-03-27T13:56:37.123Z,21.8
2019-03-27T14:01:35.559Z,21.5
2019-03-27T14:06:34.103Z,21.7
2019-03-27T14:11:32.189Z,22
2019-03-27T14:16:30.450Z,22
2019-03-27T14:21:29.344Z,22.3
2019-03-27T14:26:28.060Z,22.2
2019-03-27T14:31:26.359Z,22.4
2019-03-27T14:36:25.138Z,22.1
2019-03-27T14:41:24.010Z,22.5
2019-03-27T14:46:22.333Z,22.2
2019-03-27T14:51:20.756Z,22.3
2019-03-27T14:56:19.809Z,22.3
2019-03-27T15:01:18.239Z,22.5
2019-03-27T15:06:16.492Z,22.4
2019-03-27T15:11:14.807Z,22.7
2019-03-27T15:16:13.298Z,22.6
2019-03-27T15:21:11.907Z,22.8
2019-03-27T15:26:10.334Z,23
2019-03-27T15:31:19.684Z,23.1
2019-03-27T15:36:08.356Z,23.2
2019-03-27T15:41:06.982Z,23.4
2019-03-27T15:46:05.874Z,23.5
2019-03-27T15:51:04.141Z,23.4
2019-03-27T15:56:02.576Z,23.6
2019-03-27T16:01:01.108Z,23.7
2019-03-27T16:05:59.257Z,23.9
2019-03-27T16:10:57.618Z,24.1
2019-03-27T16:15:56.446Z,24.2
2019-03-27T16:20:55.316Z,24.5
2019-03-27T16:25:53.903Z,24.7
2019-03-27T16:30:52.299Z,25.1
2019-03-27T16:35:50.818Z,25.1
2019-03-27T16:40:49.380Z,25.2
2019-03-27T16:45:47.783Z,25.4
2019-03-27T16:50:46.155Z,25.2
2019-03-27T16:55:44.635Z,25.5
2019-03-27T17:00:43.660Z,25.3
2019-03-27T17:05:53.214Z,25.5
2019-03-27T17:10:41.311Z,25.4
2019-03-27T17:15:40.187Z,25.4
2019-03-27T17:20:38.311Z,25.4
2019-03-27T17:25:36.893Z,25.7
2019-03-27T17:30:35.283Z,25.8
2019-03-27T17:35:34.397Z,26.2
2019-03-27T17:40:32.766Z,26.1
2019-03-27T17:45:31.622Z,26.3
2019-03-27T17:50:30.785Z,26.7
2019-03-27T17:55:29.595Z,26.8
2019-03-27T18:00:28.067Z,26.9
2019-03-27T18:05:26.515Z,27.1
2019-03-27T18:10:25.539Z,27.1
2019-03-27T18:15:24.427Z,27.2
2019-03-27T18:20:22.494Z,27.4
2019-03-27T18:25:21.379Z,27.5
2019-03-27T18:30:20.557Z,27.7
2019-03-27T18:35:19.367Z,27.8
2019-03-27T18:40:18.376Z,27.9
2019-03-27T18:45:16.782Z,27.9
2019-03-27T18:50:15.677Z,28.1
2019-03-27T18:55:25.684Z,28.1
2019-03-27T19:00:13.341Z,28.2
2019-03-27T19:05:11.760Z,28.4
2019-03-27T19:10:10.393Z,28.7
2019-03-27T19:15:09.264Z,28.7
2019-03-27T19:20:08.449Z,28.7
2019-03-27T19:25:07.559Z,28.7
2019-03-27T19:30:06.762Z,28.9
2019-03-27T19:35:05.235Z,29
2019-03-27T19:40:04.026Z,28.9
2019-03-27T19:45:02.602Z,28.9
2019-03-27T19:50:01.879Z,28.9
2019-03-27T19:55:00.547Z,29.1
2019-03-27T19:59:59.010Z,29.3
2019-03-27T20:04:57.541Z,29.4
2019-03-27T20:09:56.571Z,29.5
2019-03-27T20:14:55.071Z,29.7
2019-03-27T20:19:53.988Z,29.7
2019-03-27T20:24:52.694Z,29.9
2019-03-27T20:29:51.071Z,30.2
2019-03-27T20:34:49.900Z,30.8
2019-03-27T20:39:48.255Z,30.4
2019-03-27T20:44:46.911Z,30.4
2019-03-27T20:49:45.905Z,31
2019-03-27T20:54:54.172Z,30.8
2019-03-27T21:04:41.899Z,31.3
2019-03-27T21:09:40.580Z,31.4
2019-03-27T21:14:39.159Z,31.9
2019-03-27T21:19:37.654Z,32
2019-03-27T21:24:36.146Z,32.3
2019-03-27T21:29:35.002Z,32.7
2019-03-27T21:34:33.743Z,32.7
2019-03-27T21:39:32.566Z,32
2019-03-27T21:44:31.063Z,31.9
2019-03-27T21:49:29.881Z,32
2019-03-27T21:54:28.710Z,31.8
2019-03-27T21:59:28.073Z,32.2
2019-03-27T22:04:27.135Z,32.2
2019-03-27T22:09:25.537Z,32.2
2019-03-27T22:14:24.816Z,32
2019-03-27T22:19:23.727Z,32.3
2019-03-27T22:24:22.603Z,32.5
2019-03-27T22:29:21.690Z,32.4
2019-03-27T22:34:20.631Z,32.3
2019-03-27T22:39:19.363Z,32.5
2019-03-27T22:44:17.785Z,32.5
2019-03-27T22:49:16.541Z,32.8
2019-03-27T22:54:15.155Z,33.1
2019-03-27T22:59:14.613Z,33.1
2019-03-27T23:04:13.064Z,33
2019-03-27T23:09:11.689Z,33
2019-03-27T23:14:10.823Z,33.2
2019-03-27T23:19:09.490Z,33.1
2019-03-27T23:24:08.167Z,33.2
2019-03-27T23:29:07.055Z,33.2
2019-03-27T23:34:05.878Z,33.3
2019-03-27T23:39:04.620Z,33.3
2019-03-27T23:44:03.244Z,33.4
2019-03-27T23:49:02.177Z,33.6
2019-03-27T23:54:01.106Z,33.7
2019-03-27T23:59:00.166Z,34.2
